Aérodrome :
LOGIN :

S'inscrire | Disclaimer

   EN    FR    IT 

 










Légende :    VFR   VFR Marginal   IFR   IFR Intensif   IFR Très Intensif
Visi : 
Plafond : 
>= 8 km
>= 3000ft
5 à 8 km
1000 à 3000 ft
1500m à 5 km
500 à 1000 ft
800 à 1500m
200 à 500 ft
< 800m
< 200 ft
Symboles :   Orages  Brouillard  Fortes neiges  Fortes précipitations  Vent > 20 kt
SIGMETs :   Divers  Orages  Givrage  Turbulence  Onde Orograph.  Cendres Volcan.







- Altitude de l'aérodrome : 580 ft
- Voir les cartes d'approche


LFOA - Avord

DERNIER METAR :
  • 160000Z AUTO 10005KT CAVOK 16/09 Q1015

METARs EXPIRÉS :
  • 152330Z AUTO 12004KT CAVOK 17/09 Q1015
  • 152300Z AUTO 09004KT CAVOK 16/10 Q1015
  • 152230Z AUTO 12005KT CAVOK 16/10 Q1015
  • 152200Z AUTO 12005KT CAVOK 16/09 Q1015
  • 152130Z AUTO 11004KT CAVOK 16/09 Q1014

TAF TAF LFOA
Valide du 15 à 15h jusqu'au 16 à 15h UTC


151400Z 1515/1615 13010KT CAVOK
PROB30
TEMPO 1515/1520 14015G30KT 4000 SHRA BKN060TCU
Pas de NOTAMs connus pour ce terrain.



MET'MAP, la Météo Aéronautique d'un coup d'oeil ! - Copyright ORBIFLY Décembre 2007 - Disclaimer

ORBIFLY MET'MAP TEAM :

Programmation & Développement : Alexandra Zaïnal
Conception & Développement : Baudouin d'Aumeries
Co-Programmation & Développement : Marc-Olivier Méhu
Soutien technique & logistique : Manuel Goepfert

Contact : metmap@orbifly.com




SOURCES & CREDITS :

   NOAA